Killarney, Canada
Current Conditions -  °F | °C
As of 1:00 AM on Wednesday 22 Oct 2014 (Local Time) from CYZE Reporting Station
Clear Clear  
Wind Chill: 28°   Ceiling: Unl
Heat Index: 36°   Visibility: 9mi
Dew Point: 30°   Wind: 10mph
Humidity: 81%   Direction: 50°NE
Pressure: 30.32"   Gusts: NA
Location:  45.98°N, 81.5°W
Report Text: CYZE 220500Z AUTO 05009KT 9SM CLR 02/M01 A3032 RMK SLP276
Loading
Personal Weather Stations






























Interactive Weather Map
Tropical Storm Tracking
New forecast layout! Learn more

10-Day Weather Forecast

Advertisements
Track Severe Weather on mobile